Time;durP1;ratioP1;P1;durP2;ratioP2;P2;SDS_P1;SDS_P2;PMS_P1;PMS_P2;Temp;Humidity;BMP_temperature;BMP_pressure;BME280_temperature;BME280_humidity;BME280_pressure;Samples;Min_cycle;Max_cycle;Signal;HPM_P1;HPM_P2
2022/01/18 00:00:30;;;;;;;2.50;1.15;;;-4.60;1.00;;;-4.22;81.19;98291.41;4981098;28;125774;-72
2022/01/18 00:02:59;;;;;;;3.72;1.48;;;-4.70;1.00;;;-4.16;80.42;98316.13;4978921;28;125709;-71
2022/01/18 00:05:28;;;;;;;2.40;1.20;;;-4.70;1.00;;;-4.21;79.99;98302.81;4979337;28;128982;-72
2022/01/18 00:07:59;;;;;;;2.53;1.42;;;-4.70;1.00;;;-4.28;80.66;98324.19;4996162;28;130156;-72
2022/01/18 00:10:30;;;;;;;2.42;1.38;;;-4.70;1.00;;;-4.25;80.36;98322.91;4979118;28;125685;-72
2022/01/18 00:13:23;;;;;;;2.47;1.30;;;-4.60;1.00;;;-4.24;80.44;98329.78;4982346;28;125848;-72
2022/01/18 00:16:10;;;;;;;3.03;1.25;;;-4.70;1.00;;;-4.32;79.75;98344.25;4973302;28;129841;-72
2022/01/18 00:18:40;;;;;;;3.33;1.30;;;-4.60;1.00;;;-4.15;80.73;98350.31;4979369;28;129587;-72
2022/01/18 00:21:20;;;;;;;1.80;1.05;;;-4.70;1.00;;;-4.09;79.94;98332.66;4978643;28;126653;-72
2022/01/18 00:23:55;;;;;;;4.07;1.40;;;-4.70;1.00;;;-4.04;79.93;98334.56;4978514;28;126249;-71
2022/01/18 00:26:27;;;;;;;3.50;1.30;;;-4.80;1.00;;;-4.24;80.17;98364.22;4981930;28;130874;-71
2022/01/18 00:29:01;;;;;;;1.65;1.10;;;-4.80;1.00;;;-4.28;78.91;98345.38;4980010;28;129198;-71
2022/01/18 00:31:48;;;;;;;7.32;1.30;;;-4.60;1.00;;;-4.30;79.81;98373.13;4988267;28;125317;-71
2022/01/18 00:34:22;;;;;;;3.00;1.50;;;-4.60;1.00;;;-4.21;79.74;98374.34;4977147;28;125222;-71
2022/01/18 00:36:59;;;;;;;2.25;1.13;;;-4.70;1.00;;;-4.37;79.77;98400.59;4972234;28;129356;-71
2022/01/18 00:39:29;;;;;;;2.30;1.23;;;-4.70;1.00;;;-4.30;79.09;98383.75;4977482;28;130416;-71
2022/01/18 00:41:57;;;;;;;5.75;1.27;;;-4.70;1.00;;;-4.29;80.51;98385.34;4980630;28;125707;-71
2022/01/18 00:44:26;;;;;;;2.13;1.10;;;-4.70;1.00;;;-4.23;79.56;98392.34;4977547;28;125643;-71
2022/01/18 00:46:54;;;;;;;2.45;1.05;;;-4.80;1.00;;;-4.31;79.23;98408.66;4978164;28;130317;-71
2022/01/18 00:49:23;;;;;;;2.67;1.23;;;-4.70;1.00;;;-4.21;78.92;98424.69;4978801;28;128729;-71
2022/01/18 00:51:55;;;;;;;2.80;1.10;;;-4.70;1.00;;;-4.21;78.91;98401.63;4979301;28;126378;-71
2022/01/18 00:54:32;;;;;;;2.83;1.35;;;-4.70;1.00;;;-4.22;78.86;98433.69;4994454;28;125215;-71
2022/01/18 00:57:02;;;;;;;3.75;1.52;;;-4.80;1.00;;;-4.11;78.54;98403.66;4977620;28;130031;-72
2022/01/18 00:59:31;;;;;;;2.08;1.25;;;-4.80;1.00;;;-4.19;78.82;98417.28;4978269;28;130046;-71
2022/01/18 01:01:59;;;;;;;2.75;1.20;;;-4.70;1.00;;;-4.19;78.17;98439.31;4980002;28;126495;-71
2022/01/18 01:04:31;;;;;;;3.22;1.50;;;-4.70;1.00;;;-4.30;78.46;98464.03;4977954;28;125595;-72
2022/01/18 01:07:01;;;;;;;1.52;1.20;;;-4.70;1.00;;;-4.29;78.32;98431.19;4977801;28;131645;-72
2022/01/18 01:09:30;;;;;;;3.17;1.25;;;-4.60;1.00;;;-4.03;77.72;98426.28;4976592;28;130132;-71
2022/01/18 01:11:58;;;;;;;2.13;1.15;;;-4.70;1.00;;;-4.12;78.01;98438.34;4976528;28;126927;-72
2022/01/18 01:14:29;;;;;;;3.67;1.40;;;-4.70;1.00;;;-4.22;78.33;98449.59;4978808;28;126709;-71
2022/01/18 01:17:07;;;;;;;3.08;1.35;;;-4.70;1.00;;;-4.19;77.52;98451.72;4978365;28;129925;-72
2022/01/18 01:31:59;;;;;;;1.00;0.90;;;-4.60;1.00;;;-4.22;77.51;98454.91;4977744;28;129646;-72
2022/01/18 01:34:30;;;;;;;2.33;1.20;;;-4.50;1.00;;;-4.11;77.73;98461.94;4978531;28;126124;-72
2022/01/18 01:37:15;;;;;;;2.80;1.20;;;-4.60;1.00;;;-4.12;78.35;98470.94;4973718;28;126097;-72
2022/01/18 01:42:54;;;;;;;3.10;1.35;;;-4.50;1.00;;;-4.01;78.43;98478.00;4976812;28;129594;-72
2022/01/18 01:45:24;;;;;;;1.08;1.00;;;-4.50;1.00;;;-3.90;78.61;98488.78;4979108;28;128010;-72
2022/01/18 01:47:55;;;;;;;3.78;1.65;;;-4.50;1.00;;;-4.01;78.60;98499.19;4978246;28;126061;-71
2022/01/18 01:50:27;;;;;;;3.55;1.42;;;-4.40;1.00;;;-3.88;78.69;98490.16;4976250;28;130161;-72
2022/01/18 01:52:58;;;;;;;3.80;1.30;;;-4.50;1.00;;;-3.90;79.15;98494.06;4981137;28;102596;-72
2022/01/18 01:55:27;;;;;;;6.35;1.80;;;-4.50;1.00;;;-3.97;79.17;98488.94;4978472;28;124649;-72
2022/01/18 01:57:55;;;;;;;3.90;1.30;;;-4.40;1.00;;;-3.97;79.30;98487.09;4977620;28;125351;-72
2022/01/18 02:00:24;;;;;;;2.88;1.17;;;-4.40;1.00;;;-3.90;79.92;98494.06;4976449;28;129355;-72
2022/01/18 02:02:53;;;;;;;2.83;1.52;;;-4.40;1.00;;;-3.67;79.91;98493.91;4977404;28;129728;-72
2022/01/18 02:05:23;;;;;;;3.53;1.10;;;-4.50;1.00;;;-3.88;80.60;98489.31;4975777;28;126415;-72
2022/01/18 02:07:51;;;;;;;5.28;1.20;;;-4.40;2.60;;;-3.80;81.31;98488.94;4976529;28;126201;-71
2022/01/18 02:10:20;;;;;;;2.60;1.15;;;-4.50;4.20;;;-3.76;81.00;98498.00;4976571;28;129660;-71
2022/01/18 02:12:49;;;;;;;3.13;1.42;;;-4.40;4.80;;;-3.67;80.89;98491.25;5004245;28;129898;-72
2022/01/18 02:15:19;;;;;;;3.65;1.33;;;-4.30;6.90;;;-3.61;82.08;98484.16;4976082;28;125767;-71
2022/01/18 02:23:23;;;;;;;8.13;1.48;;;-4.40;14.40;;;-3.62;82.61;98501.91;4975834;28;130139;-72
2022/01/18 02:25:52;;;;;;;2.97;1.20;;;-4.20;13.70;;;-3.56;82.95;98500.16;4976872;28;125305;-72
2022/01/18 02:28:25;;;;;;;4.03;1.58;;;-4.10;13.10;;;-3.36;83.20;98506.81;4977601;28;125461;-72
2022/01/18 02:30:55;;;;;;;5.88;1.83;;;-4.20;14.10;;;-3.48;83.77;98512.19;4976014;28;130226;-72
2022/01/18 02:33:24;;;;;;;6.57;1.88;;;-4.10;13.70;;;-3.41;84.11;98507.53;4994336;28;129440;-72
2022/01/18 02:35:54;;;;;;;3.85;1.70;;;-4.10;17.10;;;-3.44;83.85;98513.31;4978731;28;126903;-72
2022/01/18 02:38:23;;;;;;;5.28;1.25;;;-4.10;16.70;;;-3.47;84.24;98521.78;4976267;28;125420;-72
2022/01/18 02:40:52;;;;;;;3.47;1.40;;;-4.10;19.40;;;-3.27;84.73;98524.69;4976247;28;129990;-71
2022/01/18 02:46:07;;;;;;;4.25;1.30;;;-3.90;18.70;;;-3.17;84.98;98517.94;4972862;28;125875;-72
2022/01/18 02:48:35;;;;;;;5.38;1.55;;;-3.90;19.80;;;-3.04;84.94;98538.78;4979148;28;125898;-72
2022/01/18 02:51:06;;;;;;;4.47;1.75;;;-3.80;20.50;;;-3.14;85.45;98522.75;4994406;28;129908;-71
2022/01/18 02:53:52;;;;;;;3.45;1.30;;;-3.70;20.80;;;-3.28;84.79;98527.59;4977481;28;129523;-73
2022/01/18 02:56:20;;;;;;;6.90;1.60;;;-3.50;16.20;;;-2.87;84.97;98543.25;4975382;28;127125;-72
2022/01/18 02:58:49;;;;;;;5.28;1.67;;;-3.60;19.20;;;-2.84;85.47;98537.44;4978417;28;126400;-72
2022/01/18 03:04:03;;;;;;;4.45;2.17;;;-3.40;16.70;;;-2.81;85.17;98544.94;4979025;28;129575;-72
2022/01/18 03:06:33;;;;;;;5.53;1.27;;;-3.50;19.40;;;-2.82;85.31;98541.47;4978856;28;125743;-72
2022/01/18 03:09:02;;;;;;;7.32;2.03;;;-3.40;18.60;;;-2.68;85.24;98547.22;4997850;28;125003;-72
2022/01/18 03:11:30;;;;;;;3.97;2.05;;;-3.40;17.60;;;-2.78;84.64;98547.09;4978558;28;130581;-72
2022/01/18 03:13:59;;;;;;;6.18;1.63;;;-3.30;16.70;;;-2.75;85.18;98551.91;4982206;28;129910;-72
2022/01/18 03:16:27;;;;;;;3.88;1.48;;;-3.30;18.00;;;-2.74;84.19;98575.56;4978899;28;125876;-72
2022/01/18 03:18:56;;;;;;;3.25;1.40;;;-3.30;15.30;;;-2.59;84.26;98545.72;4980160;28;125635;-72
2022/01/18 03:21:24;;;;;;;4.13;1.42;;;-3.30;17.20;;;-2.44;84.18;98573.53;4963866;28;129181;-72
2022/01/18 03:24:11;;;;;;;6.00;1.63;;;-3.30;16.40;;;-2.60;84.51;98557.41;4981419;28;129585;-73
2022/01/18 03:28:04;;;;;;;2.25;1.33;;;-3.30;15.70;;;-2.65;84.07;98556.53;4981947;28;125432;-73
2022/01/18 03:29:28;;;;;;;5.45;1.70;;;-3.30;14.80;;;-2.63;84.52;98554.44;4980725;28;125850;-73
2022/01/18 03:31:56;;;;;;;3.42;1.80;;;-3.30;17.00;;;-2.75;84.48;98562.53;4978821;28;131576;-71
2022/01/18 03:34:25;;;;;;;4.20;1.70;;;-3.20;14.20;;;-2.69;85.07;98560.75;4978815;28;129709;-72
2022/01/18 03:36:54;;;;;;;4.28;1.63;;;-3.20;16.10;;;-2.57;84.77;98545.47;4983531;28;125321;-71
2022/01/18 03:39:24;;;;;;;2.20;1.65;;;-3.20;15.70;;;-2.63;84.61;98571.19;4980252;28;125463;-72
2022/01/18 03:41:55;;;;;;;5.22;1.70;;;-3.20;16.50;;;-2.41;84.74;98557.06;4980824;28;129909;-71
2022/01/18 03:44:25;;;;;;;5.05;1.95;;;-3.20;18.00;;;-2.60;84.49;98570.69;4981886;28;128856;-71
2022/01/18 03:46:54;;;;;;;5.22;1.60;;;-3.20;16.60;;;-2.49;84.48;98579.56;4979507;28;127635;-71
2022/01/18 03:49:27;;;;;;;3.22;1.50;;;-3.20;17.80;;;-2.50;84.09;98574.50;4998258;28;126191;-71
2022/01/18 03:51:55;;;;;;;3.55;1.70;;;-3.20;14.10;;;-2.51;83.96;98591.50;4979127;28;129895;-71
2022/01/18 03:54:25;;;;;;;6.25;1.70;;;-3.20;15.10;;;-2.41;83.83;98594.28;4978912;28;130148;-71
2022/01/18 03:56:54;;;;;;;6.47;1.92;;;-3.20;14.20;;;-2.38;83.60;98599.09;4977470;28;125548;-71
2022/01/18 03:59:22;;;;;;;6.03;2.20;;;-3.20;16.40;;;-2.38;83.80;98612.38;4979503;28;125408;-72
2022/01/18 04:01:51;;;;;;;6.55;1.60;;;-3.10;15.40;;;-2.44;83.66;98616.81;4980506;28;129613;-72
2022/01/18 04:04:19;;;;;;;4.38;1.40;;;-3.10;14.70;;;-2.44;83.16;98605.41;4981959;28;129865;-72
2022/01/18 04:06:48;;;;;;;5.80;1.77;;;-3.00;12.30;;;-2.23;83.84;98628.50;4979780;28;125873;-72
2022/01/18 04:09:19;;;;;;;4.43;1.70;;;-3.10;15.40;;;-2.50;83.46;98619.69;4979875;28;125452;-72
2022/01/18 04:11:49;;;;;;;3.50;1.70;;;-3.00;12.50;;;-2.39;84.13;98621.41;4978908;28;130013;-71
2022/01/18 04:14:17;;;;;;;4.20;1.85;;;-3.00;16.20;;;-2.36;83.49;98652.78;4981512;28;129865;-72
2022/01/18 04:17:00;;;;;;;4.65;1.52;;;-3.10;13.30;;;-2.37;83.02;98643.22;4978890;28;126806;-71
2022/01/18 04:25:54;;;;;;;2.92;1.40;;;-3.10;13.80;;;-2.47;83.11;98659.03;4979624;28;125488;-71
2022/01/18 04:28:04;;;;;;;5.43;1.80;;;-3.10;9.90;;;-2.43;82.63;98676.09;4985652;28;126055;-72
2022/01/18 04:30:33;;;;;;;2.40;1.25;;;-3.10;8.40;;;-2.46;81.98;98685.38;4979624;28;126123;-71
2022/01/18 04:33:01;;;;;;;1.75;1.10;;;-3.00;7.50;;;-2.39;82.23;98690.50;4978921;28;129921;-73
2022/01/18 04:35:30;;;;;;;4.47;1.50;;;-3.10;8.10;;;-2.40;81.78;98680.91;4979035;28;129631;-71
2022/01/18 04:37:58;;;;;;;4.05;1.40;;;-3.10;4.90;;;-2.47;81.30;98705.00;4979618;28;126716;-71
2022/01/18 04:40:30;;;;;;;7.03;1.50;;;-3.10;2.50;;;-2.46;81.73;98708.47;4981379;28;125883;-71
2022/01/18 04:43:11;;;;;;;7.05;1.58;;;-3.00;7.20;;;-2.36;81.93;98714.72;4978697;28;129770;-71
2022/01/18 04:48:40;;;;;;;4.05;1.30;;;-3.00;6.90;;;-2.27;82.04;98740.91;4979660;28;125619;-72
2022/01/18 04:51:11;;;;;;;3.03;1.45;;;-3.10;9.40;;;-2.37;81.82;98736.22;4980037;28;125202;-72
2022/01/18 04:53:47;;;;;;;3.97;1.55;;;-3.00;7.50;;;-2.22;82.77;98763.00;4978681;28;129760;-72
2022/01/18 04:56:19;;;;;;;3.92;1.40;;;-3.10;10.10;;;-2.28;82.11;98753.34;4981894;28;129735;-72
2022/01/18 04:58:49;;;;;;;6.10;1.40;;;-3.10;13.10;;;-2.46;83.98;98750.97;4980460;28;124879;-71
2022/01/18 05:01:17;;;;;;;7.18;1.80;;;-3.10;14.20;;;-2.42;84.48;98757.44;4978562;28;125537;-72
2022/01/18 05:03:46;;;;;;;4.20;1.63;;;-3.10;15.00;;;-2.28;84.45;98774.63;4978250;28;130387;-71
2022/01/18 05:06:17;;;;;;;4.68;1.35;;;-3.10;10.70;;;-2.50;84.16;98766.63;4980799;28;130381;-72
2022/01/18 05:08:46;;;;;;;3.90;1.60;;;-3.20;16.40;;;-2.46;85.06;98794.31;4979418;28;125678;-72
2022/01/18 05:11:18;;;;;;;5.78;1.60;;;-3.30;33.70;;;-2.59;87.86;98792.78;4961979;28;124899;-72
2022/01/18 05:14:06;;;;;;;5.55;1.60;;;-3.30;49.50;;;-2.64;90.11;98790.06;4979144;28;130600;-72
2022/01/18 05:16:51;;;;;;;5.40;1.70;;;-3.50;91.70;;;-2.94;91.37;98793.81;4978326;28;129812;-71
2022/01/18 05:19:26;;;;;;;4.28;1.60;;;-3.70;96.50;;;-2.94;92.39;98799.13;4977021;28;126143;-72
2022/01/18 05:24:40;;;;;;;4.15;1.40;;;-3.80;99.90;;;-2.73;88.85;98815.41;4977261;28;130175;-71
2022/01/18 05:27:09;;;;;;;3.50;1.25;;;-3.80;93.80;;;-2.97;85.43;98815.56;4977552;28;129742;-72
2022/01/18 05:29:39;;;;;;;3.78;1.45;;;-3.60;40.60;;;-2.81;86.44;98834.41;4980516;28;127222;-72
2022/01/18 05:32:09;;;;;;;6.57;1.27;;;-3.60;36.80;;;-2.84;85.27;98832.22;4979366;28;125648;-71
2022/01/18 05:34:37;;;;;;;4.03;1.48;;;-3.50;20.70;;;-2.85;83.18;98828.78;4979225;28;130400;-71
2022/01/18 05:37:06;;;;;;;9.40;1.70;;;-3.50;12.30;;;-2.88;82.90;98834.56;4996910;28;129368;-72
2022/01/18 05:39:35;;;;;;;4.22;1.40;;;-3.50;7.90;;;-2.81;83.13;98840.50;4978542;28;126224;-72
2022/01/18 05:42:05;;;;;;;3.55;1.20;;;-3.50;6.20;;;-2.78;82.27;98844.53;4979094;28;125925;-74
2022/01/18 05:44:33;;;;;;;4.18;1.20;;;-3.50;6.00;;;-2.66;83.03;98837.31;4977220;28;130075;-71
2022/01/18 05:47:03;;;;;;;5.25;1.20;;;-3.50;2.80;;;-2.84;80.80;98848.94;4979859;28;130522;-72
2022/01/18 05:49:32;;;;;;;4.93;1.30;;;-3.50;1.00;;;-2.89;79.55;98860.28;4977772;28;126377;-72
2022/01/18 05:52:01;;;;;;;4.57;1.38;;;-3.40;1.00;;;-2.86;79.54;98867.00;4979161;28;125129;-71
2022/01/18 05:54:29;;;;;;;5.10;1.20;;;-3.40;1.00;;;-2.80;78.48;98875.84;4979728;28;129883;-71
2022/01/18 05:56:58;;;;;;;3.50;1.13;;;-3.40;1.00;;;-2.66;79.24;98879.81;4979159;28;129133;-72
2022/01/18 05:59:34;;;;;;;7.25;2.10;;;-3.40;1.00;;;-2.59;78.93;98883.09;4977537;28;125766;-71
2022/01/18 06:02:15;;;;;;;2.90;2.65;;;-3.40;1.00;;;-2.70;79.55;98899.94;4978164;28;125560;-72
2022/01/18 06:07:31;;;;;;;5.25;1.95;;;-3.30;1.00;;;-2.20;77.63;98896.50;4957931;28;130978;-72
2022/01/18 06:10:01;;;;;;;3.72;1.40;;;-3.40;1.00;;;-2.08;76.29;98906.25;4957903;28;125719;-72
2022/01/18 06:12:29;;;;;;;1.92;1.17;;;-3.30;1.00;;;-2.23;76.49;98910.28;4957930;28;125900;-72
2022/01/18 06:14:58;;;;;;;4.30;1.48;;;-3.30;1.00;;;-2.14;77.04;98912.53;4958091;28;129758;-72
2022/01/18 06:17:28;;;;;;;4.95;1.50;;;-3.40;1.00;;;-2.27;74.97;98919.00;4959485;28;130424;-72
2022/01/18 06:19:57;;;;;;;6.13;2.45;;;-3.40;1.00;;;-2.10;75.27;98913.66;4967117;28;126526;-72
2022/01/18 06:22:26;;;;;;;4.60;1.40;;;-3.40;1.00;;;-2.09;75.36;98925.91;4976766;28;126183;-72
2022/01/18 06:24:54;;;;;;;4.57;1.60;;;-3.40;1.00;;;-2.14;75.40;98931.16;4978318;28;129478;-72
2022/01/18 06:27:23;;;;;;;5.32;1.23;;;-3.40;1.00;;;-2.15;75.27;98964.91;4977043;28;129929;-73
2022/01/18 06:29:55;;;;;;;2.97;1.33;;;-3.40;1.00;;;-2.30;73.97;98941.53;4978908;28;125337;-72
2022/01/18 06:32:24;;;;;;;3.97;1.58;;;-3.40;1.00;;;-2.25;74.86;98960.22;4977468;28;126355;-72
2022/01/18 06:34:54;;;;;;;3.17;1.50;;;-3.30;1.00;;;-2.11;75.12;98959.91;4977117;28;129916;-72
2022/01/18 06:37:22;;;;;;;2.90;1.25;;;-3.40;1.00;;;-2.12;74.35;98974.25;4980363;28;130195;-72
2022/01/18 06:39:51;;;;;;;7.28;2.00;;;-3.40;1.00;;;-2.09;73.44;98966.59;4981957;28;126589;-72
2022/01/18 06:42:20;;;;;;;5.03;1.75;;;-3.40;1.00;;;-2.10;73.87;98983.59;4979620;28;125473;-72
2022/01/18 06:44:49;;;;;;;3.92;1.70;;;-3.40;1.00;;;-2.01;72.58;98989.31;4980770;28;128950;-72
2022/01/18 06:47:18;;;;;;;8.88;2.95;;;-3.40;1.00;;;-1.92;73.11;98990.53;4979955;28;129778;-72
2022/01/18 06:49:47;;;;;;;5.22;1.75;;;-3.40;1.00;;;-1.97;73.23;99008.28;4980364;28;126344;-72
2022/01/18 06:52:17;;;;;;;3.80;1.60;;;-3.40;1.00;;;-2.02;74.30;99023.09;4981226;28;125091;-72
2022/01/18 06:54:46;;;;;;;3.20;1.60;;;-3.50;1.00;;;-2.15;73.33;99001.31;4979068;28;129669;-72
2022/01/18 06:57:15;;;;;;;4.45;1.90;;;-3.50;1.00;;;-2.15;72.95;99011.94;4979805;28;130231;-72
2022/01/18 06:59:44;;;;;;;8.60;2.13;;;-3.50;1.00;;;-2.40;73.39;99010.44;4996409;28;127045;-72
2022/01/18 07:02:12;;;;;;;4.65;1.45;;;-3.50;1.00;;;-2.22;73.61;99031.50;4999289;28;125557;-72
2022/01/18 07:04:41;;;;;;;7.25;2.10;;;-3.60;1.00;;;-2.05;73.42;99022.78;5000507;28;130216;-72
2022/01/18 07:07:10;;;;;;;8.05;1.70;;;-3.60;1.00;;;-2.16;73.12;99027.09;5000348;28;130337;-72
2022/01/18 07:09:40;;;;;;;4.63;1.95;;;-3.70;1.00;;;-2.05;73.39;99033.41;4984031;28;126279;-72
2022/01/18 07:12:11;;;;;;;3.83;1.30;;;-3.70;1.00;;;-2.19;72.43;99033.69;4980193;28;126175;-72
2022/01/18 07:14:41;;;;;;;4.22;1.70;;;-3.60;1.00;;;-1.99;71.79;99041.22;4982735;28;129650;-73
2022/01/18 07:17:10;;;;;;;4.32;1.73;;;-3.60;1.00;;;-1.90;72.33;99039.00;4980004;28;129699;-72
2022/01/18 07:19:39;;;;;;;4.53;1.60;;;-3.60;1.00;;;-1.97;72.11;99056.94;4979066;28;125595;-72
2022/01/18 07:22:08;;;;;;;4.68;1.67;;;-3.60;1.00;;;-2.02;72.76;99064.84;4980150;28;125858;-72
2022/01/18 07:24:42;;;;;;;3.75;1.52;;;-3.60;1.00;;;-2.08;72.33;99065.78;4980487;28;130352;-72
2022/01/18 07:27:14;;;;;;;4.05;1.60;;;-3.60;1.00;;;-2.17;72.36;99084.81;4980063;28;131469;-72
2022/01/18 07:29:44;;;;;;;4.22;1.90;;;-3.60;1.00;;;-2.10;71.65;99087.31;4979191;28;125803;-72
2022/01/18 07:32:13;;;;;;;4.32;1.98;;;-3.60;1.00;;;-2.06;71.78;99092.94;4975766;28;125398;-73
2022/01/18 07:34:51;;;;;;;6.35;2.50;;;-3.60;1.00;;;-2.04;71.58;99093.50;4978847;28;130402;-71
2022/01/18 07:37:20;;;;;;;4.47;1.80;;;-3.60;1.00;;;-2.09;71.04;99112.03;4979486;28;130618;-71
2022/01/18 07:39:49;;;;;;;4.60;1.80;;;-3.60;1.00;;;-2.04;70.80;99118.25;4982348;28;125898;-71
2022/01/18 07:42:21;;;;;;;4.05;1.60;;;-3.60;1.00;;;-1.87;70.61;99114.81;4979281;28;125550;-72
2022/01/18 07:44:50;;;;;;;5.15;2.17;;;-3.60;1.00;;;-1.63;70.18;99126.94;4990326;28;130139;-72
2022/01/18 07:47:19;;;;;;;5.03;1.70;;;-3.50;1.00;;;-1.78;69.62;99139.19;4998406;28;130757;-71
2022/01/18 07:49:48;;;;;;;5.28;1.95;;;-3.50;1.00;;;-1.69;69.69;99143.88;5000744;28;126221;-71
2022/01/18 07:52:17;;;;;;;4.10;1.80;;;-3.50;1.00;;;-1.72;69.92;99133.72;5001570;28;125480;-72
2022/01/18 07:54:46;;;;;;;4.50;1.80;;;-3.50;1.00;;;-1.50;69.61;99156.97;5001615;28;130252;-71
2022/01/18 07:57:15;;;;;;;8.75;2.72;;;-3.50;1.00;;;-1.53;68.84;99147.59;5001630;28;130030;-72
2022/01/18 07:59:45;;;;;;;4.47;1.80;;;-3.40;1.00;;;-1.47;68.33;99159.94;5000464;28;125549;-71
2022/01/18 08:02:14;;;;;;;3.08;1.70;;;-3.40;1.00;;;-1.56;68.30;99169.38;4999089;28;126208;-72
2022/01/18 08:04:42;;;;;;;4.53;2.00;;;-3.40;1.00;;;-1.79;68.52;99180.13;4998643;28;129925;-72
2022/01/18 08:07:10;;;;;;;3.72;1.33;;;-3.50;1.00;;;-1.82;68.83;99198.19;4998039;28;129721;-71
2022/01/18 08:09:39;;;;;;;3.88;1.50;;;-3.60;1.00;;;-1.84;68.75;99194.97;5001508;28;125352;-73
2022/01/18 08:12:09;;;;;;;4.78;1.60;;;-3.60;1.00;;;-1.86;68.44;99202.38;4982643;28;125337;-71
2022/01/18 08:14:42;;;;;;;6.03;2.03;;;-3.70;1.00;;;-1.94;69.22;99216.03;4971072;28;130500;-71
2022/01/18 08:17:12;;;;;;;4.35;1.45;;;-3.80;1.00;;;-2.05;68.50;99208.91;4959563;28;129879;-71
2022/01/18 08:19:41;;;;;;;3.83;1.52;;;-3.80;1.00;;;-1.88;68.86;99220.41;4958647;28;126154;-71
2022/01/18 08:22:11;;;;;;;4.72;1.67;;;-3.80;1.00;;;-1.89;67.42;99225.97;4961833;28;125116;-71
2022/01/18 08:24:40;;;;;;;2.38;1.42;;;-3.70;1.00;;;-1.72;67.22;99234.03;4961268;28;129715;-71
2022/01/18 08:27:09;;;;;;;3.55;1.48;;;-3.70;1.00;;;-1.69;67.38;99223.69;4958994;28;130174;-71
2022/01/18 08:29:38;;;;;;;6.68;2.20;;;-3.70;1.00;;;-1.66;67.58;99227.75;4958970;28;125728;-71
2022/01/18 08:32:08;;;;;;;3.63;1.48;;;-3.70;1.00;;;-1.95;67.59;99235.69;4974189;28;125066;-72
2022/01/18 08:34:38;;;;;;;2.40;1.30;;;-3.70;1.00;;;-1.68;66.74;99235.19;4959473;28;130716;-73
2022/01/18 08:37:06;;;;;;;2.22;1.10;;;-3.60;1.00;;;-1.64;66.12;99246.94;4969527;28;129790;-72
2022/01/18 08:39:35;;;;;;;3.40;1.70;;;-3.50;1.00;;;-1.70;66.25;99255.88;4976325;28;125629;-72
2022/01/18 08:42:04;;;;;;;5.47;1.20;;;-3.40;1.00;;;-1.43;66.55;99260.63;4979209;28;125465;-72
2022/01/18 08:44:34;;;;;;;4.22;1.42;;;-3.40;1.00;;;-1.20;65.44;99273.84;4979730;28;129914;-73
2022/01/18 08:47:03;;;;;;;2.58;1.20;;;-3.40;1.00;;;-1.33;65.14;99279.47;4980549;28;129719;-72
2022/01/18 08:49:32;;;;;;;3.45;1.73;;;-3.30;1.00;;;-1.22;65.57;99294.56;4977903;28;126660;-72
2022/01/18 08:52:02;;;;;;;5.78;1.80;;;-3.30;1.00;;;-1.67;66.22;99285.50;4980284;28;126308;-72
2022/01/18 08:54:30;;;;;;;3.20;1.52;;;-3.40;1.00;;;-1.79;66.65;99292.69;4978154;28;129847;-72
2022/01/18 08:56:59;;;;;;;4.80;1.63;;;-3.50;1.00;;;-1.55;66.20;99297.94;4977879;28;129835;-72
2022/01/18 08:59:29;;;;;;;3.72;1.50;;;-3.40;1.00;;;-1.49;63.90;99305.78;4977732;28;125993;-72
2022/01/18 09:01:59;;;;;;;3.50;1.20;;;-3.30;1.00;;;-1.35;64.35;99314.31;4981245;28;125960;-72
2022/01/18 09:04:27;;;;;;;3.78;1.50;;;-3.20;1.00;;;-1.15;64.39;99308.56;4977697;28;130445;-72
2022/01/18 09:06:57;;;;;;;5.47;1.58;;;-3.20;1.00;;;-1.13;64.91;99317.09;4978378;28;129661;-72
2022/01/18 09:09:27;;;;;;;4.10;1.40;;;-3.20;1.00;;;-0.93;64.37;99322.00;4977812;28;125652;-72
2022/01/18 09:11:55;;;;;;;5.05;1.60;;;-3.10;1.00;;;-1.11;64.14;99317.69;4980120;28;126540;-72
2022/01/18 09:14:24;;;;;;;3.50;1.40;;;-3.20;1.00;;;-0.92;63.69;99328.13;4979638;28;131246;-73
2022/01/18 09:16:53;;;;;;;4.35;1.55;;;-3.10;1.00;;;-0.94;63.55;99332.88;4977783;28;130017;-72
2022/01/18 09:19:21;;;;;;;6.25;1.50;;;-3.10;1.00;;;-0.92;63.49;99322.78;4977391;28;125405;-72
2022/01/18 09:21:50;;;;;;;4.40;2.10;;;-3.10;1.00;;;-0.52;63.03;99316.53;4977551;28;126029;-72
2022/01/18 09:24:18;;;;;;;7.72;2.00;;;-3.00;1.00;;;-0.79;61.88;99337.69;4979548;28;130548;-72
2022/01/18 09:26:48;;;;;;;4.22;1.60;;;-3.10;1.00;;;-0.77;62.13;99338.25;4977801;28;130391;-72
2022/01/18 09:29:16;;;;;;;4.57;1.50;;;-3.10;1.00;;;-0.98;62.51;99334.41;4980633;28;125610;-72
2022/01/18 09:31:45;;;;;;;3.67;1.30;;;-3.10;1.00;;;-1.04;62.37;99336.19;4977310;28;125524;-72
2022/01/18 09:34:14;;;;;;;3.78;1.70;;;-3.20;1.00;;;-1.02;63.03;99365.25;4976328;28;130379;-72
2022/01/18 09:36:42;;;;;;;4.40;1.40;;;-3.20;1.00;;;-1.19;63.02;99358.00;4993119;28;129817;-72
2022/01/18 09:39:11;;;;;;;3.10;1.35;;;-3.30;1.00;;;-1.17;63.63;99358.59;4993406;28;126488;-73
2022/01/18 09:41:42;;;;;;;4.45;1.50;;;-3.30;1.00;;;-0.67;63.05;99366.91;4961034;28;126835;-72
2022/01/18 09:44:12;;;;;;;3.45;1.50;;;-3.10;1.00;;;-0.53;62.72;99362.91;4985760;28;129930;-72
2022/01/18 09:46:41;;;;;;;5.57;1.63;;;-3.00;1.00;;;-0.69;62.41;99375.16;4980361;28;129737;-72
2022/01/18 09:49:10;;;;;;;3.25;1.48;;;-3.10;1.00;;;-0.70;62.36;99372.72;4988261;28;126431;-72
2022/01/18 09:51:38;;;;;;;4.65;2.10;;;-3.10;1.00;;;-0.73;61.46;99374.81;4978931;28;125178;-73
2022/01/18 09:54:06;;;;;;;3.97;1.90;;;-3.00;1.00;;;-0.43;61.46;99368.38;4979439;28;128955;-72
2022/01/18 09:56:35;;;;;;;4.85;1.90;;;-2.90;1.00;;;-0.30;60.77;99361.13;4976602;28;130234;-72
2022/01/18 09:59:06;;;;;;;5.25;2.85;;;-2.90;1.00;;;-0.79;60.93;99370.47;4977653;28;125660;-73
2022/01/18 10:01:36;;;;;;;10.13;2.70;;;-3.00;1.00;;;-0.69;61.94;99375.16;4977639;28;125352;-73
2022/01/18 10:04:19;;;;;;;5.97;1.80;;;-3.00;1.00;;;-0.63;61.93;99373.38;4977090;28;130302;-72
2022/01/18 10:06:50;;;;;;;6.93;2.60;;;-2.90;1.00;;;-0.26;60.95;99368.38;4976684;28;129667;-73
2022/01/18 10:09:21;;;;;;;5.95;2.30;;;-2.90;1.00;;;-0.12;60.42;99389.41;4977423;28;125630;-72
2022/01/18 10:12:07;;;;;;;5.00;1.98;;;-2.80;1.00;;;-0.32;60.23;99389.91;4977505;28;125688;-71
2022/01/18 10:14:37;;;;;;;4.15;1.95;;;-2.80;1.00;;;-0.44;61.45;99401.44;4977393;28;130008;-72
2022/01/18 10:17:10;;;;;;;8.15;3.92;;;-2.90;1.00;;;-0.04;60.97;99386.31;4977597;28;130045;-72
2022/01/18 10:19:49;;;;;;;5.22;1.95;;;-2.80;1.00;;;-0.08;59.42;99391.34;4976513;28;125528;-72
2022/01/18 10:22:26;;;;;;;5.40;2.25;;;-2.80;1.00;;;-0.26;59.72;99442.28;4979435;28;125585;-72
2022/01/18 10:24:55;;;;;;;9.00;3.40;;;-2.80;1.00;;;0.04;60.21;99401.91;4977191;28;130612;-72
2022/01/18 10:27:35;;;;;;;5.55;2.40;;;-2.70;1.00;;;-0.10;60.16;99441.44;4980047;28;130232;-72
2022/01/18 10:30:10;;;;;;;6.72;3.35;;;-2.70;1.00;;;-0.35;60.02;99419.72;4978939;28;126605;-72
2022/01/18 10:32:42;;;;;;;5.32;1.90;;;-2.80;1.00;;;0.04;60.39;99409.13;4977122;28;126134;-72
2022/01/18 10:35:11;;;;;;;3.63;2.00;;;-2.70;1.00;;;-0.07;59.21;99400.94;4976960;28;129964;-72
2022/01/18 10:37:43;;;;;;;3.83;2.00;;;-2.70;1.00;;;0.29;58.95;99400.66;4976929;28;129845;-72
2022/01/18 10:40:18;;;;;;;5.85;2.80;;;-2.60;1.00;;;0.11;59.28;99404.41;4977482;28;126355;-71
2022/01/18 10:42:50;;;;;;;5.13;2.30;;;-2.60;1.00;;;0.51;58.02;99408.69;4987618;28;125165;-72
2022/01/18 10:45:27;;;;;;;5.35;2.22;;;-2.60;1.00;;;0.37;58.42;99407.44;4978015;28;129962;-72
2022/01/18 10:48:01;;;;;;;6.75;2.58;;;-2.50;1.00;;;0.22;58.15;99416.88;4977077;28;130487;-72
2022/01/18 10:50:34;;;;;;;7.43;3.97;;;-2.60;1.00;;;0.20;58.58;99413.63;4976825;28;125873;-72
2022/01/18 10:53:14;;;;;;;8.98;4.18;;;-2.60;1.00;;;0.18;57.73;99410.38;4977241;28;125998;-72
2022/01/18 10:55:44;;;;;;;9.20;4.57;;;-2.50;1.00;;;0.04;58.47;99417.13;4975925;28;130001;-73
2022/01/18 10:58:14;;;;;;;7.28;4.18;;;-2.60;1.00;;;0.04;58.50;99411.78;4976500;28;129648;-72
2022/01/18 11:00:43;;;;;;;6.53;3.33;;;-2.50;1.00;;;-0.15;59.39;99428.03;4977393;28;126356;-73
2022/01/18 11:03:14;;;;;;;6.78;3.58;;;-2.60;1.00;;;0.20;58.96;99432.31;4976429;28;125561;-73
2022/01/18 11:05:46;;;;;;;5.72;2.10;;;-2.50;1.00;;;0.24;58.20;99414.75;4976762;28;130273;-72
2022/01/18 11:08:18;;;;;;;5.78;2.63;;;-2.50;1.00;;;0.30;57.62;99419.13;4978292;28;130310;-72
2022/01/18 11:10:49;;;;;;;4.85;2.20;;;-2.40;1.00;;;0.27;57.63;99443.63;4992916;28;124512;-73
2022/01/18 11:13:23;;;;;;;5.85;2.22;;;-2.50;1.00;;;0.01;57.55;99444.28;4976959;28;126118;-73